Time;durP1;ratioP1;P1;durP2;ratioP2;P2;SDS_P1;SDS_P2;PMS_P1;PMS_P2;Temp;Humidity;BMP_temperature;BMP_pressure;BME280_temperature;BME280_humidity;BME280_pressure;Samples;Min_cycle;Max_cycle;Signal;HPM_P1;HPM_P2
2023/05/08 00:00:03;;;;;;;5.10;4.60;;;12.60;72.00;;;12.34;63.91;98321.00;5084580;28;20452;-73
2023/05/08 00:02:31;;;;;;;5.13;4.63;;;12.60;72.10;;;12.33;63.65;98319.34;5083018;28;20440;-74
2023/05/08 00:05:02;;;;;;;7.80;4.70;;;12.60;72.10;;;11.80;64.30;98248.22;5087307;28;20456;-74
2023/05/08 00:07:29;;;;;;;4.53;4.10;;;12.60;72.20;;;12.28;64.05;98313.78;5080116;28;20439;-73
2023/05/08 00:09:57;;;;;;;5.33;4.50;;;12.60;72.40;;;12.23;64.25;98305.47;5070760;28;20444;-75
2023/05/08 00:12:24;;;;;;;5.03;4.50;;;12.60;72.40;;;12.26;64.13;98313.16;5067402;28;20448;-75
2023/05/08 00:14:51;;;;;;;4.53;3.90;;;12.60;72.30;;;12.24;63.94;98307.97;5084380;28;20488;-75
2023/05/08 00:17:18;;;;;;;4.60;4.10;;;12.60;72.30;;;11.93;64.25;98262.75;5067587;28;20550;-75
2023/05/08 00:19:46;;;;;;;5.57;4.17;;;12.60;72.60;;;12.26;64.04;98315.88;5083255;28;20456;-75
2023/05/08 00:22:15;;;;;;;5.47;4.40;;;12.60;72.40;;;12.29;64.09;98310.00;5088425;28;20525;-75
2023/05/08 00:24:42;;;;;;;5.40;4.90;;;12.60;72.40;;;12.22;64.17;98311.97;5095312;28;20447;-75
2023/05/08 00:27:09;;;;;;;5.03;4.53;;;12.50;72.30;;;12.11;64.14;98308.88;5084558;28;20480;-73
2023/05/08 00:29:39;;;;;;;6.50;4.70;;;12.50;72.40;;;12.08;64.42;98294.94;5086656;28;20453;-74
2023/05/08 00:32:06;;;;;;;6.20;4.50;;;12.40;72.30;;;12.16;64.21;98311.75;5085122;28;20448;-76
2023/05/08 00:34:33;;;;;;;4.40;3.70;;;12.50;72.50;;;12.23;64.30;98306.31;5081203;28;20555;-76
2023/05/08 00:37:01;;;;;;;5.53;4.30;;;12.40;72.50;;;12.17;63.80;98297.16;5062933;28;20754;-76
2023/05/08 00:39:30;;;;;;;6.60;5.20;;;12.40;72.40;;;12.04;64.45;98303.50;5080053;28;20475;-76
2023/05/08 00:41:57;;;;;;;5.43;4.43;;;12.40;72.50;;;11.94;64.49;98283.34;5072802;28;20488;-74
2023/05/08 00:44:24;;;;;;;5.40;4.53;;;12.30;72.50;;;12.00;63.78;98307.69;5081178;28;20462;-76
2023/05/08 00:46:52;;;;;;;4.87;4.40;;;12.30;72.50;;;11.71;64.77;98296.38;5088799;28;20506;-75
2023/05/08 00:49:19;;;;;;;3.33;3.03;;;12.20;72.60;;;11.87;64.65;98296.94;5072404;28;20516;-75
2023/05/08 00:51:49;;;;;;;6.00;4.53;;;12.20;72.90;;;11.37;64.54;98254.28;5091931;28;20560;-75
2023/05/08 00:54:17;;;;;;;5.17;4.33;;;12.10;72.60;;;11.67;65.16;98316.78;5081500;28;21008;-76
2023/05/08 00:56:46;;;;;;;4.97;4.10;;;12.10;72.80;;;11.75;64.33;98315.72;5069738;28;20452;-74
2023/05/08 00:59:16;;;;;;;5.13;4.63;;;12.00;72.70;;;11.54;64.46;98296.03;5086434;28;20444;-76
2023/05/08 01:01:46;;;;;;;3.93;3.50;;;12.00;72.70;;;11.40;64.66;98297.13;5064399;28;20448;-77
2023/05/08 01:04:14;;;;;;;4.13;3.83;;;11.90;72.50;;;11.54;64.68;98320.38;5069038;28;20438;-75
2023/05/08 01:06:41;;;;;;;5.60;4.33;;;11.90;72.70;;;11.51;64.09;98307.28;5098682;28;20942;-78
2023/05/08 01:09:10;;;;;;;4.90;4.37;;;11.90;72.60;;;11.66;63.94;98333.25;5075613;28;20808;-77
2023/05/08 01:11:48;;;;;;;5.10;3.60;;;12.00;72.50;;;11.49;64.05;98287.75;5073082;28;20452;-76
2023/05/08 01:14:21;;;;;;;4.70;4.20;;;12.00;72.50;;;11.77;63.82;98335.28;5080425;28;20470;-75
2023/05/08 01:17:03;;;;;;;4.70;3.80;;;12.00;72.10;;;11.69;63.60;98335.53;5069062;28;20444;-76
2023/05/08 01:19:58;;;;;;;4.73;4.03;;;12.00;72.10;;;11.33;63.20;98291.75;5087650;28;20993;-77
2023/05/08 01:23:24;;;;;;;5.30;4.77;;;12.00;71.80;;;11.59;63.63;98336.81;5083900;28;21009;-75
2023/05/08 01:26:25;;;;;;;4.40;3.83;;;11.90;72.00;;;11.56;64.24;98347.25;5072589;28;20463;-75
2023/05/08 01:29:36;;;;;;;4.47;4.03;;;11.90;72.40;;;11.46;64.03;98345.81;5058939;28;20466;-75
2023/05/08 01:32:17;;;;;;;4.77;4.27;;;11.80;72.30;;;11.56;64.27;98350.75;5068068;28;20446;-75
2023/05/08 01:35:00;;;;;;;5.03;4.53;;;11.80;72.70;;;11.52;64.06;98354.94;5084632;28;20505;-76
2023/05/08 01:37:36;;;;;;;4.40;4.00;;;11.80;72.30;;;11.30;64.74;98354.38;5086963;28;20451;-75
2023/05/08 01:40:12;;;;;;;4.10;3.70;;;11.70;72.20;;;11.44;64.65;98357.88;5090956;28;20863;-75
2023/05/08 01:42:49;;;;;;;4.13;3.73;;;11.70;72.50;;;11.42;63.72;98350.00;5075821;28;20538;-76
2023/05/08 01:45:21;;;;;;;4.93;3.87;;;11.70;72.30;;;11.45;63.74;98360.38;5088476;28;20448;-76
2023/05/08 01:48:01;;;;;;;5.70;4.90;;;11.80;72.40;;;11.33;64.44;98362.06;5083883;28;20471;-75
2023/05/08 01:50:36;;;;;;;5.73;4.37;;;11.70;72.30;;;11.33;64.13;98344.00;5081094;28;20463;-73
2023/05/08 01:53:12;;;;;;;5.17;4.20;;;11.70;72.30;;;11.39;63.95;98369.38;5085655;28;20467;-74
2023/05/08 01:55:41;;;;;;;4.60;4.20;;;11.70;72.20;;;11.20;64.45;98341.31;5074301;28;20715;-75
2023/05/08 01:58:11;;;;;;;5.07;3.80;;;11.70;72.30;;;11.24;64.04;98339.84;5081877;28;20529;-74
2023/05/08 02:00:40;;;;;;;4.80;4.30;;;11.70;72.30;;;11.33;64.54;98359.38;5087828;28;20451;-73
2023/05/08 02:03:12;;;;;;;5.40;4.40;;;11.70;72.40;;;11.44;64.39;98368.69;5093928;28;21228;-75
2023/05/08 02:05:40;;;;;;;4.80;4.13;;;11.70;72.40;;;11.44;63.92;98374.13;5090659;28;20463;-73
2023/05/08 02:08:09;;;;;;;4.03;3.60;;;11.80;72.20;;;11.19;64.78;98372.09;5086146;28;20451;-74
2023/05/08 02:10:38;;;;;;;4.50;3.80;;;11.60;72.30;;;11.13;65.32;98368.38;5085578;28;20463;-74
2023/05/08 02:13:06;;;;;;;4.90;4.40;;;11.60;72.60;;;11.10;64.78;98340.91;5064452;28;20447;-74
2023/05/08 02:15:37;;;;;;;5.10;4.17;;;11.60;72.80;;;11.24;64.33;98345.25;5081655;28;20569;-73
2023/05/08 02:18:07;;;;;;;4.83;4.33;;;11.60;72.80;;;11.38;64.53;98374.97;5065374;28;20566;-74
2023/05/08 02:20:37;;;;;;;5.50;4.17;;;11.70;72.70;;;11.31;64.77;98375.84;5085649;28;20466;-73
2023/05/08 02:23:05;;;;;;;4.50;4.10;;;11.60;72.80;;;10.80;64.96;98319.75;5069857;28;20455;-73
2023/05/08 02:25:33;;;;;;;4.43;4.03;;;11.60;72.90;;;11.29;65.13;98371.66;5090792;28;20536;-73
2023/05/08 02:28:02;;;;;;;5.03;4.33;;;11.60;73.00;;;11.17;65.03;98368.78;5066702;28;20526;-74
2023/05/08 02:30:30;;;;;;;5.43;4.33;;;11.50;73.10;;;11.25;65.19;98370.44;5067207;28;20479;-74
2023/05/08 02:33:00;;;;;;;4.90;4.27;;;11.50;73.40;;;11.18;65.37;98362.34;5071669;28;20509;-75
2023/05/08 02:35:30;;;;;;;4.83;3.87;;;11.50;73.40;;;11.19;65.49;98355.88;5083953;28;21043;-75
2023/05/08 02:38:02;;;;;;;4.97;4.07;;;11.50;73.60;;;11.20;66.06;98373.75;5085837;28;20554;-74
2023/05/08 02:40:31;;;;;;;4.87;4.00;;;11.50;73.70;;;11.08;66.21;98370.03;5076729;28;20805;-76
2023/05/08 02:42:58;;;;;;;6.10;4.97;;;11.40;73.80;;;11.13;65.48;98378.34;5087872;28;20459;-75
2023/05/08 02:45:31;;;;;;;5.43;4.60;;;11.40;73.90;;;10.99;65.75;98378.34;5089378;28;20460;-75
2023/05/08 02:48:09;;;;;;;6.33;5.67;;;11.40;73.90;;;10.96;66.63;98375.25;5082988;28;20489;-74
2023/05/08 02:50:43;;;;;;;5.30;4.60;;;11.30;74.10;;;10.97;66.29;98375.03;5068192;28;20860;-75
2023/05/08 02:53:19;;;;;;;4.80;4.10;;;11.30;74.30;;;10.94;66.29;98375.44;5071584;28;20462;-75
2023/05/08 02:55:50;;;;;;;4.77;4.20;;;11.30;74.60;;;10.99;66.78;98388.34;5082510;28;20457;-75
2023/05/08 02:58:24;;;;;;;6.73;4.40;;;11.30;74.60;;;10.86;66.41;98367.56;5086952;28;20467;-76
2023/05/08 03:01:00;;;;;;;5.10;4.53;;;11.30;74.70;;;10.92;67.06;98377.53;5078073;28;20439;-75
2023/05/08 03:03:36;;;;;;;5.73;4.47;;;11.30;74.80;;;10.87;66.74;98374.63;5082231;28;20454;-74
2023/05/08 03:06:10;;;;;;;5.00;3.97;;;11.30;74.90;;;10.88;67.32;98381.72;5076821;28;20446;-75
2023/05/08 03:08:40;;;;;;;5.40;4.20;;;11.20;75.10;;;10.90;66.74;98385.84;5077157;28;20783;-74
2023/05/08 03:11:14;;;;;;;5.00;4.20;;;11.20;75.30;;;10.82;67.08;98377.13;5071293;28;21312;-74
2023/05/08 03:13:44;;;;;;;5.40;4.60;;;11.20;75.40;;;10.77;67.75;98378.56;5082613;28;20454;-75
2023/05/08 03:16:17;;;;;;;4.70;4.20;;;11.10;75.50;;;10.73;67.51;98382.75;5063657;28;20505;-74
2023/05/08 03:18:52;;;;;;;6.20;5.00;;;11.10;75.70;;;10.68;68.13;98398.72;5070284;28;20459;-75
2023/05/08 03:21:20;;;;;;;5.63;4.80;;;11.00;75.90;;;10.60;67.99;98390.84;5077111;28;20510;-76
2023/05/08 03:23:52;;;;;;;5.57;4.80;;;10.90;76.00;;;10.57;68.58;98385.84;5081275;28;20459;-76
2023/05/08 03:26:21;;;;;;;7.63;5.00;;;10.90;76.10;;;10.46;68.29;98380.00;5066818;28;20595;-76
2023/05/08 03:28:49;;;;;;;6.10;5.07;;;10.90;76.30;;;10.42;68.89;98386.88;5075176;28;20443;-76
2023/05/08 03:31:20;;;;;;;6.13;5.23;;;10.80;76.60;;;10.33;68.88;98379.97;5088928;28;20455;-75
2023/05/08 03:33:50;;;;;;;7.40;5.43;;;10.70;76.70;;;10.34;69.43;98384.31;5066053;28;20530;-77
2023/05/08 03:36:18;;;;;;;6.40;5.17;;;10.70;76.90;;;10.34;68.93;98387.88;5073308;28;20444;-76
2023/05/08 03:38:45;;;;;;;6.90;5.03;;;10.70;77.00;;;10.20;69.58;98391.56;5086061;28;20568;-73
2023/05/08 03:41:14;;;;;;;5.43;4.73;;;10.70;77.10;;;10.24;69.51;98381.19;5083182;28;20463;-75
2023/05/08 03:43:42;;;;;;;5.70;4.33;;;10.60;77.10;;;10.32;69.42;98383.69;5094280;28;20451;-73
2023/05/08 03:46:10;;;;;;;7.00;5.90;;;10.60;77.30;;;10.19;69.22;98373.72;5086735;28;20581;-73
2023/05/08 03:48:38;;;;;;;7.33;5.07;;;10.60;77.50;;;10.26;69.44;98379.94;5068765;28;20459;-73
2023/05/08 03:51:06;;;;;;;7.07;5.90;;;10.60;77.60;;;10.27;69.75;98380.78;5067388;28;20471;-74
2023/05/08 03:53:35;;;;;;;7.13;5.13;;;10.60;77.60;;;10.13;69.49;98361.84;5084656;28;20498;-75
2023/05/08 03:56:03;;;;;;;7.07;5.43;;;10.60;77.60;;;10.30;69.36;98380.38;5069257;28;20459;-75
2023/05/08 03:58:41;;;;;;;4.97;4.37;;;10.60;77.60;;;10.37;69.45;98385.78;5079220;28;20466;-75
2023/05/08 04:01:21;;;;;;;6.43;4.70;;;10.60;77.80;;;10.23;69.57;98385.75;5066120;28;20475;-76
2023/05/08 04:03:59;;;;;;;6.40;5.27;;;10.60;77.70;;;10.23;69.67;98390.31;5082487;28;20453;-76
2023/05/08 04:06:32;;;;;;;7.33;6.13;;;10.50;78.00;;;10.06;70.37;98386.13;5068364;28;20459;-75
2023/05/08 04:09:08;;;;;;;7.67;6.37;;;10.50;77.90;;;10.11;69.64;98385.53;5079911;28;20534;-75
2023/05/08 04:11:42;;;;;;;7.27;5.20;;;10.50;77.90;;;10.02;69.79;98392.13;5073216;28;20452;-76
2023/05/08 04:14:17;;;;;;;6.37;5.73;;;10.50;78.10;;;10.01;70.12;98382.38;5077407;28;20537;-76
2023/05/08 04:16:51;;;;;;;7.50;5.40;;;10.50;78.10;;;10.27;69.60;98400.50;5083313;28;20451;-75
2023/05/08 04:19:24;;;;;;;6.70;5.23;;;10.50;78.20;;;10.20;69.43;98397.78;5071577;28;20456;-76
2023/05/08 04:21:55;;;;;;;5.80;4.57;;;10.50;78.00;;;10.22;69.38;98389.50;5095012;28;20446;-75
2023/05/08 04:24:25;;;;;;;6.07;5.20;;;10.60;78.20;;;10.39;69.37;98408.88;5103068;28;20453;-75
2023/05/08 04:26:53;;;;;;;7.10;5.40;;;10.60;77.90;;;10.17;69.54;98409.00;5091224;28;20726;-75
2023/05/08 04:29:25;;;;;;;5.57;4.63;;;10.60;77.90;;;10.21;70.06;98415.66;5092879;28;20458;-76
2023/05/08 04:31:53;;;;;;;7.60;5.77;;;10.60;78.10;;;10.10;69.35;98394.66;5086783;28;20465;-77
2023/05/08 04:34:20;;;;;;;6.73;5.27;;;10.60;78.00;;;10.39;69.61;98411.56;5059754;28;20480;-76
2023/05/08 04:36:48;;;;;;;8.30;5.60;;;10.70;78.20;;;10.55;68.92;98406.84;5066530;28;20874;-75
2023/05/08 04:39:15;;;;;;;6.37;5.30;;;10.80;77.90;;;10.58;68.95;98415.34;5064181;28;20594;-72
2023/05/08 04:41:42;;;;;;;6.03;5.20;;;10.80;77.90;;;10.63;71.20;98412.03;5085641;28;20444;-74
2023/05/08 04:44:10;;;;;;;5.83;4.90;;;10.90;79.50;;;10.48;69.23;98415.75;5088295;28;20455;-73
2023/05/08 04:46:38;;;;;;;6.70;5.40;;;10.80;78.30;;;10.47;68.75;98421.38;5084661;28;20467;-73
2023/05/08 04:49:06;;;;;;;6.33;5.70;;;10.80;77.70;;;10.56;68.63;98416.63;5078422;28;20459;-73
2023/05/08 04:51:33;;;;;;;6.73;5.03;;;10.80;77.70;;;10.66;67.79;98422.44;5087915;28;20898;-73
2023/05/08 04:54:01;;;;;;;8.37;5.50;;;10.90;77.60;;;10.59;67.45;98417.00;5089250;28;20567;-76
2023/05/08 04:56:28;;;;;;;5.60;4.77;;;11.00;77.30;;;10.30;67.87;98364.16;5084563;28;20451;-74
2023/05/08 04:58:55;;;;;;;6.90;5.57;;;11.00;77.40;;;10.74;68.15;98430.34;5081204;28;20485;-72
2023/05/08 05:01:22;;;;;;;7.33;5.57;;;11.00;77.40;;;10.85;67.73;98436.19;5064369;28;20483;-76
2023/05/08 05:03:51;;;;;;;6.13;4.93;;;11.10;77.30;;;10.68;68.23;98436.56;5068309;28;20459;-73
2023/05/08 05:06:18;;;;;;;6.80;5.80;;;11.10;77.30;;;10.73;68.13;98435.94;5069459;28;21051;-77
2023/05/08 05:08:45;;;;;;;7.70;5.93;;;11.10;77.10;;;10.71;67.99;98436.19;5072462;28;20482;-74
2023/05/08 05:11:12;;;;;;;6.17;4.80;;;11.10;77.30;;;10.40;68.35;98440.25;5090991;28;20466;-78
2023/05/08 05:13:40;;;;;;;5.50;4.60;;;10.90;76.90;;;10.28;68.45;98433.75;5090385;28;20455;-78
2023/05/08 05:16:08;;;;;;;7.30;5.90;;;10.80;77.30;;;10.70;67.39;98417.44;5068502;28;20459;-76
2023/05/08 05:18:35;;;;;;;5.93;5.33;;;11.00;77.30;;;10.95;66.59;98443.88;5068688;28;20456;-77
2023/05/08 05:21:04;;;;;;;6.00;5.40;;;11.20;76.80;;;10.71;67.45;98441.56;5069055;28;20449;-75
2023/05/08 05:23:31;;;;;;;7.63;5.90;;;11.20;76.50;;;10.90;67.11;98439.09;5074366;28;20443;-78
2023/05/08 05:25:59;;;;;;;7.63;5.40;;;11.20;76.60;;;10.92;66.57;98431.59;5080758;28;20474;-73
2023/05/08 05:28:26;;;;;;;7.20;5.70;;;11.30;76.40;;;11.08;65.99;98441.19;5080893;28;20471;-76
2023/05/08 05:30:54;;;;;;;7.70;5.80;;;11.40;76.20;;;10.95;66.14;98438.47;5083021;28;20471;-76
2023/05/08 05:33:21;;;;;;;7.93;5.73;;;11.40;75.70;;;11.26;65.59;98440.53;5062321;28;20467;-73
2023/05/08 05:35:48;;;;;;;6.40;5.30;;;11.60;75.90;;;11.18;65.81;98443.47;5079542;28;20579;-75
2023/05/08 05:38:18;;;;;;;6.63;4.93;;;11.60;75.70;;;11.09;66.29;98442.00;5079718;28;20474;-73
2023/05/08 05:40:45;;;;;;;7.33;5.80;;;11.50;75.70;;;11.24;65.10;98444.50;5065055;28;20459;-75
2023/05/08 05:43:12;;;;;;;6.10;5.50;;;11.60;75.40;;;11.44;64.70;98430.94;5079350;28;20448;-73
2023/05/08 05:45:40;;;;;;;6.37;5.70;;;11.70;75.20;;;11.60;64.39;98452.16;5059821;28;20477;-77
2023/05/08 05:48:07;;;;;;;8.20;5.50;;;11.80;75.10;;;12.00;63.52;98453.91;5080785;28;20475;-74
2023/05/08 05:50:36;;;;;;;7.27;5.80;;;12.20;74.90;;;11.87;62.92;98454.75;5075267;28;20948;-75
2023/05/08 05:53:05;;;;;;;7.33;5.50;;;12.30;73.90;;;12.10;63.00;98452.63;5064597;28;20451;-77
2023/05/08 05:55:35;;;;;;;7.83;6.10;;;12.40;74.20;;;12.17;62.27;98454.28;5075052;28;20459;-74
2023/05/08 05:58:08;;;;;;;6.40;5.33;;;12.60;73.30;;;12.28;61.98;98460.06;5057775;28;20860;-72
2023/05/08 06:00:35;;;;;;;6.30;5.37;;;12.60;73.10;;;11.72;63.52;98462.31;5074448;28;20455;-75
2023/05/08 06:03:02;;;;;;;7.07;5.30;;;12.30;73.00;;;11.80;63.19;98462.09;5072577;28;20464;-75
2023/05/08 06:05:30;;;;;;;6.60;5.90;;;12.20;73.30;;;11.80;63.28;98453.97;5076897;28;20906;-76
2023/05/08 06:07:57;;;;;;;7.07;5.63;;;12.30;73.40;;;11.95;63.31;98464.53;5062531;28;20514;-77
2023/05/08 06:10:24;;;;;;;9.03;5.63;;;12.30;73.60;;;11.88;62.72;98466.44;5063959;28;20807;-78
2023/05/08 06:12:53;;;;;;;7.73;6.13;;;12.30;73.10;;;12.01;63.16;98469.13;5078582;28;20518;-72
2023/05/08 06:15:20;;;;;;;7.27;6.10;;;12.30;73.50;;;12.26;62.27;98467.59;5076706;28;20451;-72
2023/05/08 06:17:48;;;;;;;6.13;4.77;;;12.60;73.00;;;12.72;60.85;98455.66;5063841;28;20457;-73
2023/05/08 06:20:15;;;;;;;7.53;5.73;;;12.90;72.50;;;12.87;60.58;98463.47;5081153;28;20461;-74
2023/05/08 06:22:42;;;;;;;6.60;5.53;;;13.10;72.50;;;13.06;59.10;98457.28;5079780;28;21116;-74
2023/05/08 06:25:10;;;;;;;6.80;5.50;;;13.30;71.10;;;12.53;60.53;98462.84;5093331;28;20469;-72
2023/05/08 06:27:38;;;;;;;5.73;5.13;;;13.10;71.40;;;12.06;60.92;98381.84;5089498;28;20467;-75
2023/05/08 06:30:09;;;;;;;6.00;4.97;;;12.90;71.40;;;12.79;60.23;98471.88;5076479;28;20457;-71
2023/05/08 06:32:36;;;;;;;6.30;5.33;;;13.10;71.20;;;12.64;60.48;98468.63;5064091;28;20706;-77
2023/05/08 06:35:05;;;;;;;8.40;5.33;;;13.10;71.50;;;13.08;59.59;98466.03;5087981;28;20454;-74
2023/05/08 06:37:32;;;;;;;5.93;4.70;;;13.30;71.30;;;12.71;60.46;98467.53;5086766;28;20486;-74
2023/05/08 06:39:59;;;;;;;6.97;5.20;;;13.10;70.90;;;13.00;59.28;98470.69;5088148;28;22273;-74
2023/05/08 06:42:26;;;;;;;7.37;5.40;;;13.30;70.50;;;12.98;59.30;98448.38;5072155;28;20505;-76
2023/05/08 06:44:54;;;;;;;7.87;6.07;;;13.30;70.60;;;13.37;59.33;98461.84;5083684;28;20457;-75
2023/05/08 06:47:25;;;;;;;5.77;5.00;;;13.60;70.90;;;13.25;59.55;98469.03;5079847;28;20970;-74
2023/05/08 06:49:52;;;;;;;7.10;5.30;;;13.60;70.30;;;13.03;59.23;98459.38;5075875;28;20580;-74
2023/05/08 06:52:20;;;;;;;6.77;5.93;;;13.50;69.80;;;13.04;59.59;98473.75;5069352;28;20513;-71
2023/05/08 06:54:47;;;;;;;6.83;5.50;;;13.40;70.00;;;13.15;59.62;98464.09;5060470;28;20459;-76
2023/05/08 06:57:15;;;;;;;7.07;5.57;;;13.50;70.30;;;13.34;58.54;98464.97;5077516;28;20848;-72
2023/05/08 06:59:42;;;;;;;5.73;5.13;;;13.70;69.60;;;13.58;57.94;98457.06;5081322;28;20779;-74
2023/05/08 07:02:10;;;;;;;6.53;5.50;;;13.90;69.50;;;14.13;56.56;98469.00;5083198;28;20455;-73
2023/05/08 07:04:39;;;;;;;6.80;5.47;;;14.20;68.90;;;14.52;55.47;98471.44;5066303;28;20462;-77
2023/05/08 07:07:06;;;;;;;7.00;6.03;;;14.70;67.60;;;14.28;55.92;98474.03;5066952;28;20452;-76
2023/05/08 07:09:33;;;;;;;5.80;5.30;;;14.70;66.90;;;14.30;57.01;98469.19;5072332;28;21048;-75
2023/05/08 07:12:01;;;;;;;5.20;4.67;;;14.50;67.70;;;14.81;55.06;98414.56;5088286;28;20450;-77
2023/05/08 07:14:28;;;;;;;6.33;4.87;;;15.00;68.10;;;15.50;53.41;98459.50;5065825;28;20458;-77
2023/05/08 07:16:57;;;;;;;5.50;4.97;;;15.50;66.00;;;15.66;52.99;98468.81;5079440;28;20459;-73
2023/05/08 07:19:24;;;;;;;6.57;5.88;;;15.90;65.20;;;15.90;52.05;98469.66;5085697;28;20946;-75
2023/05/08 07:21:53;;;;;;;5.40;4.30;;;15.90;63.90;;;16.31;51.31;98463.41;5085831;28;20284;-75
2023/05/08 07:24:20;;;;;;;5.53;5.00;;;16.20;63.60;;;15.83;52.54;98475.19;5087444;28;20467;-72
2023/05/08 07:26:47;;;;;;;5.90;5.40;;;16.20;63.20;;;15.40;53.24;98465.53;5068358;28;20545;-75
2023/05/08 07:29:15;;;;;;;6.30;5.33;;;15.90;63.10;;;15.43;53.45;98465.06;5066643;28;20470;-74
2023/05/08 07:31:44;;;;;;;6.30;5.27;;;15.90;63.10;;;15.80;52.52;98464.78;5084069;28;20458;-73
2023/05/08 07:34:12;;;;;;;5.70;4.63;;;15.90;63.10;;;15.70;52.90;98442.78;5060741;28;20467;-75
2023/05/08 07:36:40;;;;;;;6.17;5.27;;;16.00;63.20;;;16.39;51.35;98463.03;5084760;28;20787;-75
2023/05/08 07:39:09;;;;;;;5.80;5.30;;;16.40;62.70;;;16.10;52.20;98463.00;5085070;28;20497;-74
2023/05/08 07:41:39;;;;;;;6.57;5.43;;;16.40;62.20;;;16.48;51.50;98464.28;5082558;28;20478;-75
2023/05/08 07:44:06;;;;;;;5.80;5.03;;;16.60;62.30;;;17.19;50.39;98462.28;5072383;28;20487;-73
2023/05/08 07:46:35;;;;;;;5.30;4.80;;;17.00;62.60;;;16.74;51.00;98466.66;5084225;28;20467;-81
2023/05/08 07:49:03;;;;;;;5.90;5.30;;;17.10;61.40;;;17.46;48.84;98462.44;5086875;28;20478;-75
2023/05/08 07:51:30;;;;;;;5.90;5.30;;;17.40;60.80;;;17.33;48.85;98452.69;5070483;28;20463;-76
2023/05/08 07:53:58;;;;;;;5.67;5.17;;;17.50;60.00;;;17.49;49.53;98472.03;5083561;28;20447;-74
2023/05/08 07:56:27;;;;;;;8.80;4.97;;;17.50;60.30;;;17.45;48.87;98460.78;5066895;28;20454;-75
2023/05/08 07:58:54;;;;;;;5.07;4.60;;;17.70;59.50;;;17.15;49.38;98469.34;5082728;28;20595;-75
2023/05/08 08:01:21;;;;;;;5.40;4.90;;;17.40;59.70;;;17.06;49.80;98469.72;5089345;28;20488;-76
2023/05/08 08:03:49;;;;;;;6.10;4.90;;;17.40;59.60;;;17.20;50.55;98467.50;5065248;28;20557;-77
2023/05/08 08:06:17;;;;;;;5.87;5.20;;;17.40;60.20;;;17.65;49.07;98470.34;5080654;28;21013;-75
2023/05/08 08:08:44;;;;;;;5.77;4.67;;;17.60;59.80;;;17.50;49.66;98471.78;5085556;28;21049;-75
2023/05/08 08:11:12;;;;;;;5.37;4.47;;;17.60;59.60;;;16.83;51.32;98467.94;5082682;28;20447;-73
2023/05/08 08:13:40;;;;;;;6.27;5.00;;;17.30;59.70;;;17.62;49.67;98466.25;5082174;28;20454;-75
2023/05/08 08:16:08;;;;;;;5.73;4.83;;;17.50;60.10;;;17.56;49.83;98472.69;5060402;28;20454;-76
2023/05/08 08:18:36;;;;;;;5.80;4.87;;;17.60;59.80;;;16.93;51.63;98472.75;5072190;28;20450;-74
2023/05/08 08:21:06;;;;;;;5.60;5.10;;;17.10;60.20;;;16.79;51.87;98467.59;5081960;28;20470;-76
2023/05/08 08:23:34;;;;;;;7.87;6.40;;;16.90;60.60;;;17.21;50.70;98466.44;5075671;28;20769;-75
2023/05/08 08:26:01;;;;;;;6.97;5.60;;;17.20;60.40;;;16.89;51.04;98422.47;5085197;28;20464;-74
2023/05/08 08:28:28;;;;;;;5.30;4.80;;;17.20;60.80;;;17.53;50.18;98459.53;5080676;28;20475;-75
2023/05/08 08:30:57;;;;;;;5.13;4.63;;;17.60;60.40;;;17.36;50.02;98446.72;5062678;28;20518;-75
2023/05/08 08:33:24;;;;;;;5.03;4.53;;;17.60;59.80;;;17.44;50.39;98464.59;5071723;28;20447;-75
2023/05/08 08:35:51;;;;;;;4.80;4.40;;;17.60;60.00;;;17.74;49.68;98457.09;5065835;28;20830;-76
2023/05/08 08:38:18;;;;;;;6.57;5.07;;;17.70;59.80;;;18.41;48.21;98450.59;5080275;28;20447;-74
2023/05/08 08:40:46;;;;;;;5.20;4.80;;;18.20;60.10;;;18.47;47.87;98464.34;5087017;28;20464;-74
2023/05/08 08:43:14;;;;;;;5.00;4.50;;;18.40;59.20;;;18.67;47.65;98463.75;5079573;28;20472;-75
2023/05/08 08:45:42;;;;;;;5.20;4.70;;;18.60;58.70;;;19.53;46.00;98455.72;5063804;28;20444;-76
2023/05/08 08:48:12;;;;;;;5.37;4.87;;;19.10;58.50;;;19.06;45.89;98470.97;5086498;28;20538;-76
2023/05/08 08:50:43;;;;;;;5.10;4.70;;;19.30;57.30;;;17.90;48.52;98464.44;5084291;28;20452;-73
2023/05/08 08:53:16;;;;;;;5.90;5.10;;;18.50;57.60;;;18.14;48.37;98466.16;5069252;28;21344;-75
2023/05/08 08:55:48;;;;;;;5.50;5.00;;;18.40;58.00;;;18.01;49.23;98461.84;5088260;28;20538;-73
2023/05/08 08:58:21;;;;;;;7.80;4.77;;;18.30;58.40;;;18.62;47.99;98461.78;5070007;28;20954;-72
2023/05/08 09:00:50;;;;;;;5.37;4.90;;;18.50;58.40;;;18.21;48.17;98455.81;5083461;28;20453;-72
2023/05/08 09:03:18;;;;;;;6.00;5.20;;;18.60;57.90;;;18.21;48.84;98461.31;5096605;28;20454;-73
2023/05/08 09:05:48;;;;;;;5.23;4.73;;;18.40;58.20;;;18.08;49.45;98463.31;5094429;28;21268;-73
2023/05/08 09:08:21;;;;;;;6.10;5.50;;;18.30;58.60;;;18.37;48.43;98462.31;5095291;28;20947;-78
2023/05/08 09:10:49;;;;;;;6.27;5.67;;;18.40;58.30;;;18.37;48.57;98465.06;5091313;28;20534;-70
2023/05/08 09:13:17;;;;;;;5.90;5.00;;;18.50;58.20;;;17.63;50.29;98467.06;5085935;28;20453;-73
2023/05/08 09:15:45;;;;;;;5.60;5.10;;;18.10;58.30;;;17.71;50.44;98463.91;5084615;28;20474;-75
2023/05/08 09:18:12;;;;;;;5.47;4.97;;;17.90;58.90;;;17.90;49.50;98466.34;5090374;28;20456;-74
2023/05/08 09:20:42;;;;;;;4.80;4.40;;;18.00;58.60;;;17.79;50.00;98465.38;5083723;28;20455;-74
2023/05/08 09:23:10;;;;;;;5.93;5.33;;;17.90;59.00;;;18.04;49.87;98453.16;5067862;28;20459;-73
2023/05/08 09:25:44;;;;;;;5.77;5.27;;;18.20;59.30;;;17.49;50.93;98459.19;5078878;28;20460;-73
2023/05/08 09:28:23;;;;;;;5.27;4.77;;;17.90;59.00;;;18.31;49.44;98461.44;5098346;28;20443;-71
2023/05/08 09:30:54;;;;;;;6.10;5.53;;;18.20;59.10;;;18.36;48.75;98458.75;5082017;28;20482;-76
2023/05/08 09:33:24;;;;;;;5.60;5.07;;;18.40;58.50;;;18.24;49.09;98463.50;5087142;28;20451;-75
2023/05/08 09:35:54;;;;;;;5.00;4.50;;;18.40;58.50;;;17.86;50.07;98460.53;5081872;28;20506;-74
2023/05/08 09:38:36;;;;;;;5.57;5.07;;;18.30;58.50;;;18.22;49.16;98452.00;5089390;28;20501;-74
2023/05/08 09:41:09;;;;;;;6.87;5.20;;;18.30;58.50;;;18.23;49.20;98453.66;5083785;28;20543;-73
2023/05/08 09:43:36;;;;;;;6.00;4.80;;;18.40;58.40;;;18.35;49.54;98461.72;5088897;28;20446;-76
2023/05/08 09:46:27;;;;;;;6.00;5.43;;;18.40;58.80;;;18.89;48.11;98460.09;5082890;28;20467;-73
2023/05/08 09:48:56;;;;;;;6.23;5.30;;;18.70;58.50;;;19.02;47.30;98459.72;5059258;28;20483;-78
2023/05/08 09:51:26;;;;;;;5.57;5.07;;;19.00;58.00;;;18.82;48.12;98458.41;5062369;28;20448;-76
2023/05/08 09:53:54;;;;;;;6.50;5.83;;;19.00;58.00;;;18.60;48.38;98469.41;5083529;28;20480;-77
2023/05/08 09:56:33;;;;;;;6.50;5.90;;;18.90;57.80;;;18.92;48.21;98465.06;5084491;28;20462;-75
2023/05/08 09:59:02;;;;;;;5.40;4.90;;;18.90;58.10;;;18.95;47.85;98459.91;5078588;28;21007;-75
2023/05/08 10:01:32;;;;;;;5.70;5.10;;;19.10;58.20;;;19.16;47.67;98462.03;5074537;28;20816;-76
2023/05/08 10:04:00;;;;;;;5.73;5.23;;;19.20;57.90;;;19.70;47.03;98463.78;5083454;28;20977;-78
2023/05/08 10:06:29;;;;;;;5.33;4.83;;;19.40;58.10;;;19.73;46.85;98465.19;5072807;28;20851;-78
2023/05/08 10:09:10;;;;;;;5.87;5.33;;;19.50;57.80;;;19.71;46.64;98464.59;5073324;28;20546;-77
2023/05/08 10:11:40;;;;;;;6.10;5.40;;;19.70;57.50;;;20.05;45.26;98454.13;5087019;28;20492;-79
2023/05/08 10:14:07;;;;;;;5.40;4.90;;;19.90;56.90;;;20.51;44.76;98460.88;5089637;28;20994;-73
2023/05/08 10:16:41;;;;;;;5.33;4.83;;;20.20;57.00;;;20.13;45.37;98460.22;5088311;28;20462;-76
2023/05/08 10:19:14;;;;;;;6.03;5.53;;;20.40;56.50;;;20.29;45.43;98459.16;5063881;28;20461;-77
2023/05/08 10:21:47;;;;;;;6.30;5.50;;;20.30;56.90;;;20.22;44.82;98453.94;5082658;28;20503;-78
2023/05/08 10:24:17;;;;;;;5.87;5.30;;;20.50;56.10;;;20.21;45.70;98455.03;5086173;28;20470;-77
2023/05/08 10:26:56;;;;;;;6.00;5.20;;;20.40;56.40;;;20.62;44.89;98461.72;5075809;28;20450;-77
2023/05/08 10:29:33;;;;;;;6.23;5.63;;;20.50;56.60;;;20.64;44.55;98454.06;5081866;28;20544;-75
2023/05/08 10:32:02;;;;;;;5.80;5.30;;;20.70;56.00;;;19.95;45.86;98465.06;5069721;28;21337;-80